Kansas, Ohio
Current Conditions -  °F | °C
As of 4:53 AM on Sunday 23 Nov 2014 (Local Time) from KTDZ Reporting Station
Light Rain Light Rain  
Wind Chill: 41°   Ceiling: 6000
Heat Index: 46°   Visibility: 9mi
Dew Point: 42°   Wind: 9mph
Humidity: 86%   Direction: 190°S
Pressure: 29.98"   Gusts: NA
Location:  41.24°N, 83.28°W
Report Text: KTDZ 230953Z AUTO 19008KT 9SM -RA SCT030 SCT041 OVC060 08/06 A2998 RMK AO2 SLP155 P0005 T00780056 TSNO
Loading
Personal Weather Stations






























Interactive Weather Map New forecast layout! Learn more

10-Day Weather Forecast

Advertisements
Track Severe Weather on mobile